Terminal Aerodrome Forecast
Issued by NWS

Home | Current Version | Previous Version | Text Only | Print | Product List | Glossary On
Versions: 1 2 3 4 5 6 7 8 9 10 11 12 13 14 15 16 17 18
000
FTUS43 KICT 300820 AAA
TAFSLN
TAF AMD
KSLN 300820Z 3008/3106 07004KT 3SM BR SCT002
      TEMPO 3010/3014 1/4SM FG OVC002
     FM301500 13006KT P6SM FEW030=

USA.gov is the U.S. government's official web portal to all federal, state and local government web resources and services.